Flight Track Log - Related Links

Times and Time Zones

All times are in EDT time to prevent confusion due to time zone crossing. See the DAL6197 flight status page for this flight to view local times or setup timezone preferences in your user account.

Time Position Orientation Groundspeed Altitude Reporting Facility
EDT Latitude Longitude Course Direction KTS MPH feet Rate Location/Type
Wed 07:11:52 PM 40.7333 -73.8333 217° Southwest 196 226 3,200  Level New York TRACON
Wed 07:13:00 PM 40.6286 -73.9274 217° Southwest  Level Estimated
Wed 07:13:52 PM 40.7667 -73.8833 217° Southwest 281 323 8,400  Level New York TRACON
Wed 07:14:52 PM 40.7167 -73.9667 232° Southwest 301 346 11,100 2,050 Climbing New York TRACON
Wed 07:15:52 PM 40.6333 -74.0000 197° South 356 410 12,500 1,844 Climbing New York TRACON
Wed 07:17:00 PM 40.1473 -74.1694 217° Southwest  Level FlightAware Approximate
Wed 07:18:17 PM 40.3936 -74.1039 198° South 388 447 17,400  Level New York Center
Wed 07:19:18 PM 40.2967 -74.1425 197° South 396 456 18,600 1,361 Climbing New York Center
Wed 07:20:16 PM 40.1853 -74.1833 196° South 411 473 20,100 1,677 Climbing New York Center
Wed 07:20:51 PM 40.1200 -74.2078 196° South 427 491 21,200 1,516 Climbing Washington Center
Wed 07:21:51 PM 40.0039 -74.2589 199° South 432 497 22,500 1,240 Climbing Washington Center
Wed 07:22:52 PM 39.9050 -74.3472 214° Southwest 415 478 23,700 1,190 Climbing Washington Center
Wed 07:23:52 PM 39.8058 -74.4489 218° Southwest 439 505 24,900 1,220 Climbing Washington Center
Wed 07:24:50 PM 39.7194 -74.5636 226° Southwest 444 511 26,100 1,311 Climbing Washington Center
Wed 07:25:51 PM 39.6183 -74.6917 224° Southwest 455 524 27,500 1,230 Climbing Washington Center
Wed 07:26:52 PM 39.5275 -74.8139 226° Southwest 461 531 28,600 1,059 Climbing Washington Center
Wed 07:27:50 PM 39.4367 -74.9358 226° Southwest 466 536 29,600 1,008 Climbing Washington Center
Wed 07:28:51 PM 39.3456 -75.0547 225° Southwest 466 536 30,600 1,041 Climbing Washington Center
Wed 07:29:51 PM 39.2356 -75.1467 213° Southwest 471 542 31,700 689 Climbing Washington Center
Wed 07:30:53 PM 39.1044 -75.1958 196° South 471 542 32,000 151 Climbing Washington Center
Wed 07:31:50 PM 38.9794 -75.2472 198° South 482 555 32,000  Level Washington Center
Wed 07:32:51 PM 38.8567 -75.2983 198° South 476 548 32,000 246 Level Washington Center
Wed 07:33:52 PM 38.7294 -75.3522 198° South 471 542 32,500 706 Climbing Washington Center
Wed 07:34:50 PM 38.6067 -75.4031 198° South 471 542 33,400 958 Climbing Washington Center
Wed 07:35:51 PM 38.4836 -75.4564 199° South 471 542 34,400 885 Climbing Washington Center
Wed 07:36:52 PM 38.3586 -75.5122 199° South 471 542 35,200 843 Climbing Washington Center
Wed 07:37:52 PM 38.2586 -75.5917 212° Southwest 471 542 36,100 915 Climbing Washington Center
Wed 07:38:50 PM 38.1544 -75.6867 216° Southwest 471 542 37,000 958 Climbing Washington Center
Wed 07:39:51 PM 38.0458 -75.7947 218° Southwest 466 536 38,000 492 Climbing Washington Center
Wed 07:40:52 PM 37.9539 -75.8761 215° Southwest 466 536 38,000  Level Washington Center
Wed 07:41:51 PM 37.8556 -75.9653 216° Southwest 460 529 38,000  Level Washington Center
Wed 07:42:52 PM 37.7550 -76.0697 219° Southwest 443 510 38,000  Level Washington Center
Wed 07:43:50 PM 37.6631 -76.1558 217° Southwest 433 498 38,000  Level Washington Center
Wed 07:44:51 PM 37.5750 -76.2258 212° Southwest 427 491 38,000  Level Washington Center
Wed 07:45:52 PM 37.4806 -76.3142 217° Southwest 427 491 38,000  Level Washington Center
Wed 07:46:50 PM 37.3842 -76.3994 215° Southwest 433 498 38,000  Level Washington Center
Wed 07:47:50 PM 37.2897 -76.4872 216° Southwest 433 498 38,000  Level Washington Center
Wed 07:48:50 PM 37.1953 -76.5747 216° Southwest 433 498 38,000  Level Washington Center
Wed 07:49:51 PM 37.1028 -76.6569 215° Southwest 428 493 38,000  Level Washington Center
Wed 07:50:52 PM 37.0100 -76.7414 216° Southwest 423 487 38,000  Level Washington Center
Wed 07:51:53 PM 36.9197 -76.8233 216° Southwest 423 487 38,000  Level Washington Center
Wed 07:52:50 PM 36.8289 -76.9075 217° Southwest 417 480 38,000  Level Washington Center
Wed 07:53:51 PM 36.7364 -76.9889 215° Southwest 417 480 38,000  Level Washington Center
Wed 07:54:51 PM 36.6478 -77.0700 216° Southwest 412 474 38,000  Level Washington Center
Wed 07:55:52 PM 36.5611 -77.1564 219° Southwest 412 474 38,000  Level Washington Center
Wed 07:56:52 PM 36.4722 -77.2425 218° Southwest 412 474 38,000  Level Washington Center
Wed 07:57:50 PM 36.3833 -77.3258 217° Southwest 407 468 38,000  Level Washington Center
Wed 07:58:50 PM 36.2947 -77.4064 216° Southwest 407 468 38,000  Level Washington Center
Wed 07:59:52 PM 36.2036 -77.4942 218° Southwest 396 456 38,000  Level Washington Center
Wed 08:00:50 PM 36.1167 -77.5769 218° Southwest 396 456 38,000  Level Washington Center
Wed 08:01:51 PM 36.0278 -77.6569 216° Southwest 402 463 38,000  Level Washington Center
Wed 08:02:51 PM 35.9367 -77.7367 215° Southwest 402 463 38,000  Level Washington Center
Wed 08:03:51 PM 35.8414 -77.8108 212° Southwest 402 463 38,000  Level Washington Center
Wed 08:04:52 PM 35.7481 -77.8853 213° Southwest 407 468 38,000  Level Washington Center
Wed 08:05:53 PM 35.6528 -77.9564 211° Southwest 407 468 38,000  Level Washington Center
Wed 08:06:50 PM 35.5575 -78.0303 212° Southwest 407 468 38,000  Level Washington Center
Wed 08:07:50 PM 35.4811 -78.0892 212° Southwest 412 474 38,000  Level Washington Center
Wed 08:08:50 PM 35.3772 -78.1700 212° Southwest 412 474 38,000 -150 Level Washington Center
Wed 08:09:50 PM 35.2839 -78.2433 213° Southwest 412 474 37,700 -645 Descending Washington Center
Wed 08:10:51 PM 35.1861 -78.3164 211° Southwest 412 474 36,700 -836 Descending Washington Center
Wed 08:11:52 PM 35.0947 -78.3919 214° Southwest 412 474 36,000 -694 Descending Washington Center
Wed 08:12:52 PM 34.9992 -78.4647 212° Southwest 412 474 35,300 -1,424 Descending Washington Center
Wed 08:13:50 PM 34.9033 -78.5397 213° Southwest 412 474 33,200 -2,192 Descending Washington Center
Wed 08:15:28 PM 34.7436 -78.6583 211° Southwest 396 456 29,600 -1,861 Descending Jacksonville Center
Wed 08:16:28 PM 34.6481 -78.7286 211° Southwest 401 461 28,300 -800 Descending Jacksonville Center
Wed 08:17:28 PM 34.5567 -78.8011 213° Southwest 401 461 28,000 -150 Descending Jacksonville Center
Wed 08:18:28 PM 34.4672 -78.8758 215° Southwest 401 461 28,000  Level Jacksonville Center
Wed 08:19:28 PM 34.3736 -78.9481 212° Southwest 401 461 28,000  Level Jacksonville Center
Wed 08:20:28 PM 34.2797 -79.0150 211° Southwest 401 461 28,000 -450 Level Jacksonville Center
Wed 08:21:28 PM 34.1769 -79.0647 202° Southwest 396 456 27,100 -950 Descending Jacksonville Center
Wed 08:22:28 PM 34.0739 -79.1094 200° South 396 456 26,100 -1,000 Descending Jacksonville Center
Wed 08:23:28 PM 33.9750 -79.1564 201° Southwest 390 449 25,100 -1,133 Descending Jacksonville Center
Wed 08:25:28 PM 33.7817 -79.2444 201° Southwest 379 436 22,700 -1,400 Descending Jacksonville Center
Wed 08:26:28 PM 33.6897 -79.3133 212° Southwest 366 421 20,900 -1,500 Descending Jacksonville Center
Wed 08:27:28 PM 33.6242 -79.3608 211° Southwest 358 412 19,700 -1,350 Descending Jacksonville Center
Wed 08:28:28 PM 33.5364 -79.4292 213° Southwest 353 406 18,200 -1,400 Descending Jacksonville Center
Wed 08:29:28 PM 33.4567 -79.4869 211° Southwest 348 400 16,900 -1,400 Descending Jacksonville Center
Wed 08:30:28 PM 33.3789 -79.5472 213° Southwest 343 395 15,400 -1,450 Descending Jacksonville Center
Wed 08:31:28 PM 33.3053 -79.6022 212° Southwest 333 383 14,000 -1,250 Descending Jacksonville Center
Wed 08:32:28 PM 33.2314 -79.6569 212° Southwest 333 383 12,900 -1,300 Descending Jacksonville Center
Wed 08:33:28 PM 33.1578 -79.7117 212° Southwest 318 366 11,400 -1,500 Descending Jacksonville Center
Wed 08:34:28 PM 33.0922 -79.7636 214° Southwest 307 353 9,900 -1,300 Descending Jacksonville Center
Wed 08:35:28 PM 33.0267 -79.8156 214° Southwest 296 341 8,800 -1,050 Descending Jacksonville Center
Wed 08:36:28 PM 32.9633 -79.8672 214° Southwest 291 335 7,800 -1,100 Descending Jacksonville Center
Wed 08:37:28 PM 32.9017 -79.9111 211° Southwest 277 319 6,600 -1,200 Descending Jacksonville Center
Wed 08:39:00 PM 32.8986 -80.0405 344° North  Level Estimated
Wed 08:46:00 PM 32.8986 -80.0405 348° North  Level Estimated
Wed 08:47:00 PM 32.8986 -80.0405 348° North  Level Estimated
Wed 08:48:00 PM 32.8986 -80.0405 348° North  Level Estimated
Wed 08:49:00 PM 32.8986 -80.0405 348° North  Level Estimated
Wed 08:50:00 PM 32.8986 -80.0405 348° North  Level Estimated
Wed 08:51:00 PM 32.8986 -80.0405 348° North  Level Estimated
Wed 08:52:00 PM 32.8986 -80.0405 348° North  Level Estimated
Wed 08:53:00 PM 32.8986 -80.0405 348° North  Level Estimated

Login

Don't have an account? Register now (free) for customized features, flight alerts, and more!